logo
Search for airport 
image banner adimage banner adimage banner ad
image banner ad

EDYH - Helwin Alpha

Located in , Germany

ICAO - , IATA -

Data provided by Airmate  

General information

Coordinates: N54°27'8" E7°44'24"
Elevation is 174 feet MSL.
 
View others Airports in Schleswig-Holstein

Operational data

Special qualification required
Current time UTC:
Current local time:
Weather at : EDXW - Sylt ( 64 km )
METAR: EDXW 230950Z 25012KT 9999 SCT030TCU 17/10 Q1008
TAF: TAF EDXW 230800Z 2309/2318 29009KT 9999 SCT020 TEMPO 2312/2316 3000 SHRA BKN012CB PROB30 TEMPO 2312/2315 27015G25KT TSRA
View NOTAMs / SUP AIP / TFR affecting this airport [VIEW]
Communications frequencies: [VIEW]

Runways:

Airport contact information

Address: Germany

Satellite view of EDYH